8  °C
Temperature
46  °F
Temperature
36  °F
 Dewpoint
2  °C
  Dewpoint
66  %
 Humidity
  Temperature
14  km/h
Wind Speed
8  kts
Wind Speed
9  mph
Wind Speed
4.0  m/s
Wind Speed
20°
North North
East

Wind Speed
Partly Cloudy
Conditions
Pressure 1024.92 (hPa) - 30.27 (inHG)
Visibility 10.0 (km) - 6.2 (mi)

Sky Conditions
LTBA
Location Atatürk International 10 km (6.22 mi)
Metar :LTBA 201950Z 02008KT 9999 FEW040 BKN100 08/02 Q1025 NOSIG RMK RWY17L 02007KT 350V050 RWY05 36007KT 340V040 RWY23 02009KT 350V050
Sat 20th April 22:50 pm

Nearest Airport
https://www.checkwx.com/weather/
  Metar Aviation API Data Provided by https://www.checkwx.com/ Original CSS/SVG/PHP scripts by weather34.com © 2015-2019